Air Resources Laboratory banner image
Air Resources Laboratory web site National Oceanic and Atmospheric Administration (NOAA)

tx metar


K11R 171255Z AUTO 23007KT 7SM SCT014 26/25 A3009 RMK AO2 T02560250=
K11R 171315Z AUTO 24009KT 7SM SCT014 26/25 A3010 RMK AO2 T02610250=
K11R 171335Z AUTO 25008KT 7SM OVC012 27/25 A3010 RMK AO2 T02650251=
K6R6 171253Z AUTO 10004KT 24/14 A3010 RMK AO1 SLP153 T02440139=
KABI 171252Z 20009KT 8SM CLR 26/17 A3009 RMK AO2 SLP159 T02560172=
KACT 171251Z 19009KT 10SM CLR 26/19 A3006 RMK AO2 SLP170 T02610194=
KADS 171247Z 20005KT 10SM SKC 28/19 A3003=
KAFW 171253Z 20008KT 8SM SCT300 28/19 A3002 RMK AO2 SLP148 T02830189=
KALI 171253Z AUTO 16004KT 6SM BR CLR 25/24 A3005 RMK AO2 SLP173 T02500239=
KAMA 171253Z 25005KT 10SM CLR 23/17 A3015 RMK AO2 SLP154 T02280172=
KATT 171251Z AUTO 20004KT 9SM CLR 24/22 A3011 RMK AO2 SLP181 T02440217=
KAUS 171253Z 19003KT 8SM FEW016 24/23 A3010 RMK AO2 SLP180 T02390228 $=
KBAZ 171251Z 22007KT 6SM HZ FEW023 26/23 A3009 RMK AO2 SLP181 T02560228=
KBGD 171251Z AUTO 00000KT 10SM CLR 24/17 A3011 RMK AO2 SLP150 T02390172=
KBMQ 171253Z AUTO VRB06KT 9SM CLR 23/21 A3013 RMK AO2 SLP182 T02330206 $=
KBPT 171253Z 23003KT 7SM CLR 26/24 A3007 RMK AO2 SLP182 T02610244=
KBRO 171253Z 16003KT 10SM CLR 27/26 A3005 RMK AO2 SLP175 T02670256=
KCDS 171253Z AUTO 24005KT 10SM CLR 27/17 A3005 RMK AO2 SLP143 T02670172=
KCLL 171253Z 22008KT 10SM OVC010 25/24 A3009 RMK AO2 SLP182 T02500239=
KCNW 171255Z 17008KT 7SM HZ SKC 24/21 A3007=
KCOT 171253Z AUTO 11005KT 8SM CLR 24/23 A3006 RMK AO2 SLP170 T02390233=
KCRP 171251Z 16003KT 7SM FEW018 BKN250 25/25 A3005 RMK AO2 SLP175 T02500250 $=
KCRS 171253Z AUTO 21010KT 7SM CLR 25/22 A3006 RMK AO2 SLP174 T02500217=
KCXO 171253Z VRB05KT 8SM SCT007 OVC016 25/25 A3009 RMK AO2 SLP186 T02500250=
KDAL 171253Z 21007KT 7SM SCT300 29/20 A3002 RMK AO2 SLP157 T02890200=
KDFW 171253Z 20009KT 8SM CLR 28/19 A3001 RMK AO2 SLP152 T02830189=
KDHT 171253Z AUTO 22004KT 10SM CLR 21/16 A3017 RMK AO2 SLP155 T02060161=
KDLF 171256Z 12009KT 7SM FEW300 25/21 A3007 RMK AO2A SLP168 T02470210=
KDRT 171253Z AUTO 11006KT 10SM CLR 26/22 A3006 RMK AO2 SLP159 T02560217 $=
KDTO 171253Z 20004KT 10SM CLR 27/19 A3002 RMK AO2 SLP155 T02670189=
KDWH 171253Z 26005KT 7SM BKN008 BKN012 26/25 A3008 RMK AO2 SLP183 T02560250=
KDYS 171256Z AUTO 18006KT 10SM CLR 26/15 A3008 RMK AO2 SLP132 T02610151 $=
KELP 171251Z 04004KT 10SM FEW100 FEW250 21/19 A3019 RMK AO2 SLP160 T02060189=
KERV 171255Z AUTO 17005KT 7SM OVC014 23/20 A3014 RMK AO2 T02260202=
KFST 171253Z AUTO 19004KT 10SM CLR 21/16 A3014 RMK AO2 SLP156 T02110161=
KFTW 171253Z 19006KT 10SM CLR 26/20 A3003 RMK AO2 SLP156 T02610200=
KFWS 171246Z 19004KT 7SM SKC 27/19 A3005=
KGDP 171251Z AUTO 25005KT 10SM CLR 19/15 A3029 RMK AO2 SLP177 T01940150 $=
KGGG 171253Z 23005KT 6SM HZ CLR 26/22 A3004 RMK AO2 SLP164 T02560222=
KGKY 171253Z 18006KT 10SM CLR 27/21 A3003 RMK AO2 SLP159 T02670211=
KGLS 171252Z 23006KT 10SM CLR 28/26 A3008 RMK AO2 SLP186 T02780261=
KGPM 171250Z 18006KT 7SM SKC 27/19 A3005=
KGRK 171258Z AUTO 20004KT 9SM CLR 25/19 A3007 RMK AO2 SLP170 T02450189=
KGTU 171256Z 20009KT 10SM CLR 24/22 A3011 RMK AO2 SLP187 T02440217=
KGVT 171250Z AUTO 19006KT 10SM CLR 27/20 A3003 RMK AO2=
KHDO 171251Z AUTO 06004KT 10SM CLR 26/23 A3010 RMK AO2 SLP176 T02560228 $=
KHHF 171255Z AUTO 00000KT 10SM CLR 22/21 A3007 RMK AO2 T02160205=
KHLR 171258Z AUTO 21008KT 9SM CLR 25/20 A3004 RMK AO2 SLP159 T02460195=
KHOU 171253Z 23003KT 7SM CLR 26/26 A3007 RMK AO2 SLP186 T02610256=
KHRL 171252Z 15006KT 6SM BR CLR 26/25 A3004 RMK AO2 SLP171 T02560250=
KHYI 171256Z 20004KT 10SM CLR 25/23 A3011 RMK AO2 SLP185 T02500233 $=
KIAH 171253Z 26004KT 7SM SCT013 SCT250 26/25 A3008 RMK AO2 SLP183 T02610250=
KILE 171256Z AUTO 21010KT 10SM CLR 24/21 A3008 RMK AO2 SLP185 T02440206=
KINK 171253Z AUTO 12008KT 10SM CLR 23/14 A3011 RMK AO2 SLP145 T02280139 PNO $=
KJCT 171251Z AUTO 00000KT 8SM CLR 23/21 A3013 RMK AO2 SLP163 T02330211=
KLBB 171253Z 23007KT 10SM FEW260 26/14 A3014 RMK AO2 SLP147 T02560139=
KLBX 171253Z AUTO 00000KT 9SM CLR 26/24 A3007 RMK AO2 SLP183 T02560239=
KLFK 171253Z AUTO 23004KT 10SM BKN009 24/23 A3007 RMK AO2 SLP176 T02390233 TSNO=
KLRD 171256Z 15009KT 10SM CLR 26/22 A3005 RMK AO2 SLP173 T02610222=
KLVJ 171253Z AUTO 22003KT 7SM CLR 25/25 A3008 RMK AO2 SLP186 T02500250=
KMAF 171253Z 18006KT 7SM CLR 24/13 A3014 RMK AO2 SLP154 T02440133=
KMRF 171256Z AUTO 36003KT 10SM CLR 17/15 A3026 RMK AO2 SLPNO T01670150 $=
KMWL 171253Z AUTO 15005KT 10SM CLR 26/17 A3004 RMK AO2 SLP156 T02560172=
KNGP 171256Z 19009KT 10SM FEW015 BKN300 29/26 A3005 RMK AO2 SLP174 T02890261=
KNOG 171256Z AUTO 17006KT 6SM BR CLR 25/24 A3006 RMK AO2 SLP160 T02500244 $=
KNQI 171256Z 16005KT 6SM BR FEW020 FEW220 BKN280 26/25 A3005 RMK AO2 SLP172
 T02610250=
KOCH 171256Z AUTO 26004KT 9SM 24/23 A3008 RMK AO2 SLP185 T02440228 $=
KODO 171253Z AUTO 18009KT 9SM CLR 25/13 A3015 RMK AO2 SLP156 T02500133=
KPEQ 171255Z AUTO 16003KT 10SM CLR 21/18 A3011 RMK AO2 T02050176=
KPIL 171253Z AUTO 18004KT 7SM CLR 27/24 A3004 RMK AO2 SLP172 T02720244=
KPPA 171255Z AUTO 29005KT 10SM CLR 24/17 A3013 RMK AO2 T02410173=
KPRX 171256Z AUTO 21008KT 9SM CLR 27/22 A3002 RMK AO2 SLP169 T02720222=
KPSX 171253Z AUTO 22005KT 10SM FEW020 FEW027 29/26 A3007 RMK AO2 SLP180
 T02890261=
KPVW 171255Z AUTO 23007KT 10SM CLR 22/14 A3013 RMK AO2 T02180141=
KPWG 171256Z AUTO 17004KT 10SM CLR 24/20 A3007 RMK AO2 SLP183 T02440200=
KRBD 171253Z VRB04KT 9SM CLR 28/20 A3002 RMK AO2 SLP156 T02830200=
KRKP 171253Z AUTO VRB05KT 7SM CLR 28/24 A3006 RMK AO2 SLP181 T02780244=
KRND 171256Z 22005KT 10SM BKN022 25/23 A3011 RMK AO2A CIG 021 RWY33R SLP187
 T02520227=
KSAT 171251Z 20008KT 10SM BKN018 26/22 A3011 RMK AO2 SLP177 T02560217=
KSEP 171255Z AUTO 00000KT 7SM CLR 25/20 A3010 RMK AO2 T02490201=
KSGR 171253Z 26003KT 10SM CLR 26/24 A3007 RMK AO2 SLP183 T02610244=
KSJT 171251Z 19006KT 10SM CLR 24/17 A3010 RMK AO2 SLP165 T02440172=
KSKF 171256Z AUTO 18003KT 10SM SCT026 26/22 A3009 RMK AO2 SLP181 T02550222 $=
KSPS 171252Z 21009KT 10SM CLR 28/15 A3001 RMK AO2 SLP143 T02780150=
KSSF 171253Z 21005KT 10SM OVC025 27/23 A3008 RMK AO2 SLP172 T02670233=
KTKI 171253Z 15005KT 10SM CLR 26/22 A3002 RMK AO2 SLP157 T02610217=
KTPL 171251Z AUTO 17007KT 9SM CLR 24/21 A3008 RMK AO2 SLP185 T02390211=
KTRL 171253Z AUTO 19007KT 10SM CLR 26/20 A3004 RMK AO2 SLP164 T02560200 PNO $=
KTYR 171253Z 21010KT 10SM CLR 26/21 A3005 RMK AO2 SLP167 T02610206=
KUTS 171253Z AUTO 23007KT 8SM BKN010 26/23 A3008 RMK AO2 SLP181 T02560233=
KVCT 171251Z 00000KT 4SM BR SCT027 24/24 A3008 RMK AO2 SLP185 T02440239=